Time;durP1;ratioP1;P1;durP2;ratioP2;P2;SDS_P1;SDS_P2;PMS_P1;PMS_P2;Temp;Humidity;BMP_temperature;BMP_pressure;BME280_temperature;BME280_humidity;BME280_pressure;Samples;Min_cycle;Max_cycle;Signal;HPM_P1;HPM_P2
2022/12/05 00:04:21;;;;;;;3.65;3.05;;;;;;;15.64;90.28;101623.31;20934062;28;20052;-86
2022/12/05 00:14:22;;;;;;;4.53;3.50;;;;;;;15.63;90.40;101619.75;20957682;28;20048;-85
2022/12/05 00:24:24;;;;;;;3.97;3.13;;;;;;;15.63;90.21;101627.81;20957412;28;20052;-85
2022/12/05 00:34:25;;;;;;;3.78;3.25;;;;;;;15.64;90.13;101629.53;20958636;28;20482;-86
2022/12/05 00:44:27;;;;;;;3.95;3.38;;;;;;;15.63;90.14;101633.19;20946945;28;20513;-86
2022/12/05 00:54:28;;;;;;;3.72;3.00;;;;;;;15.64;89.83;101628.69;20922827;28;20049;-86
2022/12/05 01:04:30;;;;;;;4.10;3.03;;;;;;;15.62;90.02;101631.47;20948123;28;20170;-86
2022/12/05 01:14:31;;;;;;;3.97;3.30;;;;;;;15.63;89.69;101621.59;20938293;28;20040;-86
2022/12/05 01:24:33;;;;;;;4.22;3.17;;;;;;;15.62;89.76;101630.63;20961391;28;20041;-87
2022/12/05 01:34:34;;;;;;;3.35;2.97;;;;;;;15.63;89.71;101627.81;20972559;28;20056;-86
2022/12/05 01:44:36;;;;;;;3.65;2.95;;;;;;;15.62;89.34;101620.72;20937248;28;20062;-85
2022/12/05 01:54:37;;;;;;;3.08;2.75;;;;;;;15.63;89.48;101626.97;20970102;28;20055;-87
2022/12/05 02:05:04;;;;;;;3.60;2.83;;;;;;;15.62;89.35;101622.56;20943813;28;20052;-87
2022/12/05 02:15:24;;;;;;;4.63;2.85;;;;;;;15.63;89.25;101621.59;20951206;28;20049;-85
2022/12/05 02:25:43;;;;;;;3.30;2.90;;;;;;;15.45;88.89;101595.03;20967915;28;20044;-86
2022/12/05 02:35:54;;;;;;;3.70;2.90;;;;;;;15.62;88.94;101603.78;20948883;28;20060;-86
2022/12/05 02:45:59;;;;;;;3.40;2.90;;;;;;;15.62;89.08;101603.78;20965737;28;20072;-86
2022/12/05 02:56:01;;;;;;;3.63;2.73;;;;;;;15.28;88.61;101534.47;20940315;28;20054;-86
2022/12/05 03:06:15;;;;;;;3.83;2.90;;;;;;;15.61;88.81;101596.69;20947366;28;20123;-85
2022/12/05 03:16:26;;;;;;;3.20;2.72;;;;;;;15.43;88.73;101575.50;20947430;28;20048;-86
2022/12/05 03:26:50;;;;;;;3.42;2.63;;;;;;;15.61;88.55;101610.13;20963051;28;20493;-87
2022/12/05 03:36:52;;;;;;;3.90;3.08;;;;;;;15.61;88.47;101608.28;20962684;28;20048;-86
2022/12/05 03:47:05;;;;;;;3.92;3.20;;;;;;;15.40;88.66;101583.75;20959992;28;20048;-86
2022/12/05 03:57:23;;;;;;;3.67;2.78;;;;;;;15.60;88.51;101617.28;20935426;28;20052;-86
2022/12/05 04:07:26;;;;;;;3.15;2.55;;;;;;;15.06;88.24;101519.81;20942946;28;20102;-86
2022/12/05 04:17:44;;;;;;;3.35;2.72;;;;;;;15.59;88.09;101612.88;20941470;28;20049;-86
2022/12/05 04:28:18;;;;;;;4.25;2.72;;;;;;;15.60;88.13;101617.28;20941927;28;20519;-85
2022/12/05 04:38:28;;;;;;;3.00;2.45;;;;;;;15.59;87.92;101625.47;20957800;28;20152;-86
2022/12/05 04:48:30;;;;;;;3.72;2.75;;;;;;;15.60;88.12;101627.19;20924685;28;20053;-86
2022/12/05 04:58:31;;;;;;;3.60;2.63;;;;;;;15.49;87.99;101607.31;20931460;28;20500;-86
2022/12/05 05:08:33;;;;;;;3.38;2.92;;;;;;;15.55;87.74;101607.84;20938734;28;20046;-86
2022/12/05 05:18:34;;;;;;;3.38;3.00;;;;;;;15.58;87.64;101629.94;20955646;28;20048;-86
2022/12/05 05:28:36;;;;;;;3.22;2.50;;;;;;;15.43;87.45;101602.31;20937885;28;20682;-86
2022/12/05 05:38:39;;;;;;;3.80;2.80;;;;;;;15.27;87.34;101577.50;20956051;28;20064;-86
2022/12/05 05:48:40;;;;;;;3.42;2.88;;;;;;;15.58;87.39;101626.44;20955114;28;20036;-86
2022/12/05 05:58:42;;;;;;;3.28;2.70;;;;;;;15.58;87.41;101629.09;20945734;28;20063;-85
2022/12/05 06:08:44;;;;;;;2.78;2.42;;;;;;;15.58;86.83;101637.16;20937966;28;20062;-86
2022/12/05 06:18:45;;;;;;;3.35;2.40;;;;;;;15.57;87.32;101635.44;20961876;28;20068;-86
2022/12/05 06:28:47;;;;;;;3.08;2.40;;;;;;;15.57;86.88;101630.06;20965295;28;20445;-84
2022/12/05 06:38:49;;;;;;;3.67;2.70;;;;;;;15.57;87.00;101627.38;20929224;28;20132;-84
2022/12/05 06:48:55;;;;;;;2.45;2.10;;;;;;;15.56;86.92;101621.16;20931738;28;21516;-86
2022/12/05 06:58:57;;;;;;;2.92;2.20;;;;;;;15.56;86.65;101631.88;20963050;28;20520;-86
2022/12/05 07:08:59;;;;;;;3.10;2.30;;;;;;;15.36;86.91;101609.94;20957239;28;20045;-85
2022/12/05 07:19:00;;;;;;;2.53;2.10;;;;;;;15.56;86.85;101644.47;20937729;28;20060;-85
2022/12/05 07:29:01;;;;;;;2.70;1.98;;;;;;;15.47;86.59;101628.00;20942174;28;20048;-88
2022/12/05 07:39:03;;;;;;;2.33;1.92;;;;;;;15.42;86.38;101630.13;20962135;28;20512;-88
2022/12/05 07:49:06;;;;;;;2.72;1.98;;;;;;;15.32;86.15;101589.66;20917620;28;20052;-87
2022/12/05 07:59:07;;;;;;;2.40;1.80;;;;;;;15.55;86.28;101630.16;20899776;28;20074;-86
2022/12/05 08:09:10;;;;;;;2.92;2.20;;;;;;;15.58;85.71;101639.84;21004818;28;20044;-91
2022/12/05 08:19:12;;;;;;;2.53;1.88;;;;;;;15.29;85.50;101595.22;21017203;28;20443;-86
2022/12/05 08:29:14;;;;;;;3.05;2.08;;;;;;;15.58;85.01;101656.78;20918973;28;20072;-94
2022/12/05 08:39:17;;;;;;;2.35;1.42;;;;;;;15.58;85.10;101656.78;20895240;28;20078;-87
2022/12/05 08:49:19;;;;;;;2.20;1.70;;;;;;;15.49;85.27;101660.09;20976021;28;20055;-95
2022/12/05 08:59:20;;;;;;;2.28;1.65;;;;;;;15.57;85.25;101668.50;21006645;28;20049;-86
2022/12/05 09:09:22;;;;;;;1.90;1.58;;;;;;;15.55;85.25;101675.78;20948060;28;20053;-86
2022/12/05 09:19:26;;;;;;;1.73;1.50;;;;;;;15.56;85.04;101671.28;20921955;28;20048;-86
2022/12/05 09:29:30;;;;;;;2.90;1.92;;;;;;;15.55;85.19;101686.53;20913726;28;20051;-93
2022/12/05 09:39:32;;;;;;;1.90;1.42;;;;;;;15.06;85.41;101612.81;20944116;28;20068;-84
2022/12/05 09:49:36;;;;;;;1.67;1.33;;;;;;;15.54;85.27;101692.84;20937432;28;20060;-86
2022/12/05 09:59:38;;;;;;;2.75;1.63;;;;;;;15.42;85.40;101666.84;20916637;28;20041;-85
2022/12/05 10:09:58;;;;;;;2.13;1.38;;;;;;;15.25;85.35;101627.69;20910982;28;20634;-84
2022/12/05 10:20:05;;;;;;;2.22;1.55;;;;;;;15.54;85.18;101678.59;20989253;28;20046;-84
2022/12/05 10:30:23;;;;;;;1.40;1.30;;;;;;;15.36;85.19;101652.00;20960785;28;20059;-84
2022/12/05 10:40:38;;;;;;;2.25;1.30;;;;;;;15.54;85.24;101665.16;20967922;28;20087;-84
2022/12/05 10:50:41;;;;;;;2.40;1.55;;;;;;;15.55;85.35;101669.56;20977435;28;20045;-84
2022/12/05 11:00:47;;;;;;;1.58;1.35;;;;;;;15.46;85.38;101650.41;20940510;28;20053;-84
2022/12/05 11:11:03;;;;;;;3.13;1.58;;;;;;;15.54;85.23;101655.28;20916802;28;20047;-85
2022/12/05 11:21:11;;;;;;;1.30;1.20;;;;;;;15.54;85.24;101647.22;20898407;28;20139;-84
2022/12/05 11:31:15;;;;;;;1.75;1.30;;;;;;;15.54;85.13;101655.28;20904966;28;20044;-84
2022/12/05 11:41:36;;;;;;;1.70;1.13;;;;;;;15.55;85.10;101645.41;20918762;28;20053;-84
2022/12/05 11:51:40;;;;;;;1.63;1.27;;;;;;;15.56;85.34;101644.47;20932974;28;20051;-85
2022/12/05 12:02:11;;;;;;;1.67;1.25;;;;;;;15.57;85.18;101632.75;20895509;28;20063;-88
2022/12/05 12:12:34;;;;;;;2.20;1.50;;;;;;;15.11;85.11;101557.06;20922711;28;20040;-86
2022/12/05 12:22:51;;;;;;;1.73;1.20;;;;;;;15.59;85.01;101626.31;20942070;28;20052;-86
2022/12/05 12:32:58;;;;;;;2.03;1.40;;;;;;;15.59;85.11;101620.09;20933337;28;20097;-86
2022/12/05 12:43:39;;;;;;;1.20;1.10;;;;;;;15.59;85.01;101612.03;20954218;28;20056;-87
2022/12/05 12:54:30;;;;;;;1.75;1.15;;;;;;;15.59;84.93;101612.03;20928642;28;20075;-88
2022/12/05 13:04:56;;;;;;;1.42;1.23;;;;;;;15.58;84.85;101604.94;20919112;28;20055;-87
2022/12/05 13:15:02;;;;;;;1.98;1.25;;;;;;;15.58;84.90;101607.63;20885265;28;20478;-86
2022/12/05 13:25:03;;;;;;;1.40;1.00;;;;;;;15.58;84.83;101596.91;20903090;28;20048;-85
2022/12/05 13:35:11;;;;;;;1.10;0.98;;;;;;;15.59;84.95;101593.25;20911382;28;20512;-84
2022/12/05 13:45:18;;;;;;;1.30;1.00;;;;;;;15.59;84.88;101595.94;20937868;28;20053;-84
2022/12/05 13:55:37;;;;;;;1.10;1.00;;;;;;;15.59;84.73;101601.31;20913532;28;20127;-85
2022/12/05 14:05:51;;;;;;;0.85;0.85;;;;;;;15.59;84.68;101610.19;20933000;28;20106;-89
2022/12/05 14:15:53;;;;;;;1.63;0.90;;;;;;;15.60;84.69;101603.03;20927116;28;20054;-91
2022/12/05 14:26:12;;;;;;;1.40;0.80;;;;;;;15.64;84.51;101599.16;20922225;28;20044;-84
2022/12/05 14:36:16;;;;;;;1.77;1.00;;;;;;;15.54;84.11;101584.66;20906491;28;20078;-85
2022/12/05 14:46:28;;;;;;;1.03;0.70;;;;;;;15.52;84.16;101590.13;20906222;28;20117;-84
2022/12/05 14:56:31;;;;;;;2.25;1.15;;;;;;;15.64;84.18;101612.59;20925799;28;20094;-84
2022/12/05 15:06:36;;;;;;;1.92;1.00;;;;;;;15.58;84.27;101596.91;20906859;28;20059;-84
2022/12/05 15:16:41;;;;;;;2.17;1.10;;;;;;;15.63;84.40;101616.22;20902484;28;20137;-85
2022/12/05 15:26:52;;;;;;;2.47;1.15;;;;;;;15.64;84.34;101623.31;20904861;28;20048;-87
2022/12/05 15:37:19;;;;;;;2.67;0.90;;;;;;;15.63;84.54;101621.59;20910395;28;20064;-83
2022/12/05 15:47:23;;;;;;;2.88;1.38;;;;;;;15.63;84.31;101635.03;20923346;28;20106;-84
2022/12/05 15:57:31;;;;;;;3.55;1.10;;;;;;;15.33;84.35;101582.44;20894852;28;20900;-87
2022/12/05 16:07:33;;;;;;;2.00;1.13;;;;;;;15.63;84.36;101632.34;20922894;28;20475;-83
2022/12/05 16:17:45;;;;;;;3.20;1.23;;;;;;;15.25;84.58;101574.94;20927612;28;20056;-84
2022/12/05 16:28:08;;;;;;;2.85;1.60;;;;;;;15.63;84.43;101637.72;20933387;28;20493;-84
2022/12/05 16:38:15;;;;;;;3.45;1.63;;;;;;;15.63;84.61;101643.06;20920865;28;20774;-83
2022/12/05 16:48:25;;;;;;;3.13;1.88;;;;;;;15.64;84.82;101644.78;20890554;28;20056;-83
2022/12/05 16:58:29;;;;;;;4.97;1.77;;;;;;;15.66;84.70;101654.44;20915775;28;20518;-84
2022/12/05 17:08:30;;;;;;;6.00;2.28;;;;;;;15.60;85.14;101635.22;20921538;28;20056;-84
2022/12/05 17:18:32;;;;;;;4.20;2.22;;;;;;;15.65;85.07;101646.50;20901058;28;20573;-83
2022/12/05 17:28:33;;;;;;;4.03;2.28;;;;;;;15.66;84.93;101659.81;20914518;28;20055;-84
2022/12/05 17:38:35;;;;;;;4.50;2.20;;;;;;;15.67;85.08;101663.38;20907506;28;20048;-83
2022/12/05 17:48:36;;;;;;;5.15;2.35;;;;;;;15.66;85.10;101665.19;20934227;28;20051;-83
2022/12/05 17:58:38;;;;;;;4.75;2.40;;;;;;;15.34;85.03;101621.72;20915332;28;20068;-83
2022/12/05 18:08:42;;;;;;;4.35;2.38;;;;;;;15.65;85.20;101689.47;20912602;28;20060;-83
2022/12/05 18:18:45;;;;;;;5.10;2.55;;;;;;;15.66;85.07;101680.44;20923600;28;20421;-92
2022/12/05 18:28:47;;;;;;;4.82;2.45;;;;;;;15.67;85.15;101687.53;20910343;28;20052;-84
2022/12/05 18:38:52;;;;;;;4.28;2.67;;;;;;;15.67;85.33;101692.91;20949783;28;20139;-83
2022/12/05 18:48:53;;;;;;;4.40;2.15;;;;;;;15.62;85.25;101687.84;20969158;28;20044;-84
2022/12/05 18:59:09;;;;;;;3.20;2.30;;;;;;;15.66;85.28;101694.72;20968301;28;20505;-84
2022/12/05 19:09:14;;;;;;;4.75;2.40;;;;;;;15.68;85.23;101700.00;20949601;28;20478;-83
2022/12/05 19:19:16;;;;;;;4.63;2.20;;;;;;;15.26;85.12;101626.75;20967945;28;20056;-84
2022/12/05 19:29:18;;;;;;;4.30;2.10;;;;;;;15.66;85.41;101702.75;20961992;28;20071;-83
2022/12/05 19:39:24;;;;;;;5.50;2.17;;;;;;;15.67;85.11;101714.38;20941458;28;20044;-84
2022/12/05 19:49:27;;;;;;;3.75;2.00;;;;;;;15.68;85.30;101723.28;20962648;28;20087;-84
2022/12/05 19:59:28;;;;;;;3.42;2.00;;;;;;;15.67;85.28;101711.69;20927855;28;20500;-84
2022/12/05 20:09:30;;;;;;;3.30;1.80;;;;;;;15.67;85.34;101717.06;20960631;28;20053;-84
2022/12/05 20:19:31;;;;;;;2.90;1.80;;;;;;;15.66;85.22;101713.50;20942817;28;20060;-83
2022/12/05 20:29:34;;;;;;;3.85;2.17;;;;;;;15.68;85.28;101716.09;20950156;28;20479;-83
2022/12/05 20:39:35;;;;;;;4.25;2.22;;;;;;;15.68;85.49;101716.09;20958801;28;20052;-83
2022/12/05 20:49:37;;;;;;;3.03;1.98;;;;;;;15.68;85.47;101715.22;20957975;28;20040;-83
2022/12/05 20:59:38;;;;;;;3.67;1.98;;;;;;;15.68;85.51;101712.53;20939898;28;20059;-83
2022/12/05 21:09:40;;;;;;;3.60;2.20;;;;;;;15.68;85.34;101705.38;20940096;28;20457;-83
2022/12/05 21:19:42;;;;;;;4.45;2.08;;;;;;;15.68;85.26;101700.00;20956673;28;20056;-82
2022/12/05 21:29:43;;;;;;;3.58;1.80;;;;;;;15.68;85.18;101705.38;20931094;28;20055;-84
2022/12/05 21:39:44;;;;;;;2.97;1.52;;;;;;;15.68;85.20;101708.03;20958173;28;20078;-84
2022/12/05 21:49:46;;;;;;;2.75;1.45;;;;;;;15.59;85.22;101693.41;20972277;28;20044;-84
2022/12/05 21:59:48;;;;;;;3.75;1.52;;;;;;;15.69;85.33;101711.56;20971119;28;20055;-83
2022/12/05 22:09:49;;;;;;;2.00;1.48;;;;;;;15.68;85.03;101705.38;20969481;28;20044;-84
2022/12/05 22:19:50;;;;;;;3.47;1.70;;;;;;;15.68;85.17;101699.13;20969833;28;20051;-84
2022/12/05 22:29:52;;;;;;;3.45;1.55;;;;;;;15.68;85.30;101699.13;20926340;28;20102;-84
2022/12/05 22:39:53;;;;;;;2.53;1.38;;;;;;;15.68;85.16;101693.75;20949009;28;20048;-83
2022/12/05 22:49:55;;;;;;;3.10;1.85;;;;;;;15.68;85.25;101689.25;20966484;28;20055;-83
2022/12/05 22:59:56;;;;;;;1.33;1.08;;;;;;;15.69;84.98;101687.41;20965774;28;20048;-82
2022/12/05 23:09:58;;;;;;;2.70;1.70;;;;;;;15.68;84.97;101681.22;20965631;28;20084;-83
2022/12/05 23:20:00;;;;;;;2.13;1.23;;;;;;;15.68;85.13;101683.00;20965337;28;20051;-84
2022/12/05 23:30:04;;;;;;;2.17;1.38;;;;;;;15.69;85.00;101679.38;20955650;28;20040;-84
2022/12/05 23:40:07;;;;;;;2.45;1.35;;;;;;;15.48;84.81;101650.31;20946612;28;20110;-83
2022/12/05 23:50:09;;;;;;;3.35;1.70;;;;;;;15.45;84.96;101645.16;20962707;28;20090;-84
